アデレード の空港の天気 - METARとTAF

アデレード空港 ( YPAD / ADL ) - オーストラリア 南オーストラリア州アデレード
飛行場実況気象(Metar)
観測時間08/11 16:00 ACST (08/11 06:30 UTC)
風向・風速北北東 7m/s
視程10km以上
天気現象
少しの雲 雲底高度 980m
全天の8割程度の雲 雲底高度 1280m
気温13℃
湿度82%
気圧1006hPa
METARYPAD 110630Z 02013KT 9999 FEW032 BKN042 13/10 Q1006 FM0800 01012KT 9999 -SHRA SCT025 BKN040 INTER 0800/0930 4000 SHRA BKN015
過去の天気等 Google飛行場航空写真 Wunderground天気予報

過去48時間のMETAR

飛行場予報(TAF)
発表時間: 8/11 16:00 ACST (8/11 06:30 UTC)
予報対象時間: 11日16時 ACST ~ 12日21時 ACST
風向・風速北北東 7m/s
視程10km以上
天気現象弱いしゅう雨
少しの雲 雲底高度 460m
全天の4割程度の雲 雲底高度 760m
全天の8割程度の雲 雲底高度 1520m
12日3時 ACST から
風向・風速北 5m/s
視程10km以上
天気現象弱いしゅう雨
全天の8割程度の雲 雲底高度 370m
全天を覆う雲 雲底高度 760m
12日10時 ACST から
風向・風速北北西 7m/s
視程10km以上
天気現象弱いしゅう雨
全天の4割程度の雲 雲底高度 610m
全天の8割程度の雲 雲底高度 910m
12日5時 ACST ~ 12日9時 ACST に一時的に
視程10km以上
天気現象弱いしゅう雨
全天の8割程度の雲 雲底高度 240m
12日9時 ACST ~ 12日13時 ACST に一時的に
視程3000m
天気現象しゅう雨
全天の8割程度の雲 雲底高度 300m
TAF AMD YPAD 110630Z 1107/1212 02014KT 9999 -SHRA FEW015 SCT025 BKN050
FM111800 35010KT 9999 -SHRA BKN012 OVC025
FM120100 34014KT 9999 -SHRA SCT020 BKN030 INTER 1108/1111 4000 SHRA BKN015
TEMPO 1120/1200 9999 -SHRA BKN008
TEMPO 1200/1204 3000 SHRA BKN010 INTER 1207/1212 4000 SHRA BKN015
PROB30 INTER 1201/1203 VRB25G35KT 2000 TSRA BKN015 FEW030CB